sensor_id;sensor_type;location;lat;lon;timestamp;P1;durP1;ratioP1;P2;durP2;ratioP2
80411;SDS011;69749;42.684;23.360;2023-05-07T00:01:31;18.20;;;8.98;;
80411;SDS011;69749;42.684;23.360;2023-05-07T00:03:56;14.40;;;8.70;;
80411;SDS011;69749;42.684;23.360;2023-05-07T00:06:22;13.45;;;7.93;;
80411;SDS011;69749;42.684;23.360;2023-05-07T00:08:47;12.15;;;7.82;;
80411;SDS011;69749;42.684;23.360;2023-05-07T00:11:13;12.10;;;8.25;;
80411;SDS011;69749;42.684;23.360;2023-05-07T00:13:38;12.60;;;8.63;;
80411;SDS011;69749;42.684;23.360;2023-05-07T00:16:04;14.13;;;8.52;;
80411;SDS011;69749;42.684;23.360;2023-05-07T00:18:30;13.05;;;8.60;;
80411;SDS011;69749;42.684;23.360;2023-05-07T00:20:55;13.60;;;8.40;;
80411;SDS011;69749;42.684;23.360;2023-05-07T00:23:21;12.50;;;8.68;;
80411;SDS011;69749;42.684;23.360;2023-05-07T00:25:47;12.38;;;8.88;;
80411;SDS011;69749;42.684;23.360;2023-05-07T00:28:12;12.80;;;9.20;;
80411;SDS011;69749;42.684;23.360;2023-05-07T00:30:37;16.27;;;9.27;;
80411;SDS011;69749;42.684;23.360;2023-05-07T00:33:03;13.20;;;9.00;;
80411;SDS011;69749;42.684;23.360;2023-05-07T00:35:28;13.50;;;8.35;;
80411;SDS011;69749;42.684;23.360;2023-05-07T00:37:54;10.68;;;7.55;;
80411;SDS011;69749;42.684;23.360;2023-05-07T00:40:20;13.80;;;7.57;;
80411;SDS011;69749;42.684;23.360;2023-05-07T00:42:46;11.30;;;8.20;;
80411;SDS011;69749;42.684;23.360;2023-05-07T00:45:12;13.85;;;8.27;;
80411;SDS011;69749;42.684;23.360;2023-05-07T00:47:39;12.60;;;8.18;;
80411;SDS011;69749;42.684;23.360;2023-05-07T00:50:05;12.52;;;9.02;;
80411;SDS011;69749;42.684;23.360;2023-05-07T00:52:32;14.30;;;8.93;;
80411;SDS011;69749;42.684;23.360;2023-05-07T00:54:57;14.20;;;9.35;;
80411;SDS011;69749;42.684;23.360;2023-05-07T00:57:29;28.83;;;10.20;;
80411;SDS011;69749;42.684;23.360;2023-05-07T00:59:57;14.48;;;9.48;;
80411;SDS011;69749;42.684;23.360;2023-05-07T01:02:22;13.30;;;8.73;;
80411;SDS011;69749;42.684;23.360;2023-05-07T01:04:48;12.80;;;8.60;;
80411;SDS011;69749;42.684;23.360;2023-05-07T01:07:13;18.95;;;9.50;;
80411;SDS011;69749;42.684;23.360;2023-05-07T01:09:39;10.13;;;7.63;;
80411;SDS011;69749;42.684;23.360;2023-05-07T01:12:05;7.68;;;6.53;;
80411;SDS011;69749;42.684;23.360;2023-05-07T01:14:31;10.82;;;6.85;;
80411;SDS011;69749;42.684;23.360;2023-05-07T01:16:58;11.52;;;6.88;;
80411;SDS011;69749;42.684;23.360;2023-05-07T01:19:23;6.97;;;5.45;;
80411;SDS011;69749;42.684;23.360;2023-05-07T01:21:49;8.88;;;6.07;;
80411;SDS011;69749;42.684;23.360;2023-05-07T01:24:16;7.00;;;5.15;;
80411;SDS011;69749;42.684;23.360;2023-05-07T01:26:43;7.57;;;5.38;;
80411;SDS011;69749;42.684;23.360;2023-05-07T01:29:09;7.32;;;5.57;;
80411;SDS011;69749;42.684;23.360;2023-05-07T01:31:35;8.07;;;5.22;;
80411;SDS011;69749;42.684;23.360;2023-05-07T01:34:02;8.32;;;5.35;;
80411;SDS011;69749;42.684;23.360;2023-05-07T01:36:29;8.65;;;5.15;;
80411;SDS011;69749;42.684;23.360;2023-05-07T01:38:56;10.00;;;5.45;;
80411;SDS011;69749;42.684;23.360;2023-05-07T01:41:23;7.70;;;4.90;;
80411;SDS011;69749;42.684;23.360;2023-05-07T01:43:50;9.18;;;4.90;;
80411;SDS011;69749;42.684;23.360;2023-05-07T01:46:17;7.65;;;5.78;;
80411;SDS011;69749;42.684;23.360;2023-05-07T01:48:43;6.22;;;5.35;;
80411;SDS011;69749;42.684;23.360;2023-05-07T01:51:11;8.43;;;5.55;;
80411;SDS011;69749;42.684;23.360;2023-05-07T01:53:37;7.85;;;5.03;;
80411;SDS011;69749;42.684;23.360;2023-05-07T01:56:03;10.95;;;6.32;;
80411;SDS011;69749;42.684;23.360;2023-05-07T01:58:29;7.22;;;5.78;;
80411;SDS011;69749;42.684;23.360;2023-05-07T02:00:54;10.63;;;6.15;;
80411;SDS011;69749;42.684;23.360;2023-05-07T02:03:19;8.77;;;6.32;;
80411;SDS011;69749;42.684;23.360;2023-05-07T02:05:45;10.27;;;6.68;;
80411;SDS011;69749;42.684;23.360;2023-05-07T02:08:10;10.18;;;6.82;;
80411;SDS011;69749;42.684;23.360;2023-05-07T02:10:35;9.82;;;5.88;;
80411;SDS011;69749;42.684;23.360;2023-05-07T02:13:01;11.90;;;7.78;;
80411;SDS011;69749;42.684;23.360;2023-05-07T02:15:27;9.27;;;7.35;;
80411;SDS011;69749;42.684;23.360;2023-05-07T02:17:59;10.40;;;7.00;;
80411;SDS011;69749;42.684;23.360;2023-05-07T02:20:25;8.30;;;6.97;;
80411;SDS011;69749;42.684;23.360;2023-05-07T02:22:50;9.63;;;7.05;;
80411;SDS011;69749;42.684;23.360;2023-05-07T02:25:16;9.57;;;6.88;;
80411;SDS011;69749;42.684;23.360;2023-05-07T02:27:41;11.13;;;7.55;;
80411;SDS011;69749;42.684;23.360;2023-05-07T02:30:07;12.00;;;7.93;;
80411;SDS011;69749;42.684;23.360;2023-05-07T02:32:32;13.50;;;8.65;;
80411;SDS011;69749;42.684;23.360;2023-05-07T02:34:58;12.55;;;8.68;;
80411;SDS011;69749;42.684;23.360;2023-05-07T02:37:23;13.23;;;8.75;;
80411;SDS011;69749;42.684;23.360;2023-05-07T02:39:48;12.73;;;9.60;;
80411;SDS011;69749;42.684;23.360;2023-05-07T02:42:14;14.68;;;8.88;;
80411;SDS011;69749;42.684;23.360;2023-05-07T02:44:39;13.55;;;9.60;;
80411;SDS011;69749;42.684;23.360;2023-05-07T02:47:05;16.35;;;9.88;;
80411;SDS011;69749;42.684;23.360;2023-05-07T02:49:33;14.52;;;9.77;;
80411;SDS011;69749;42.684;23.360;2023-05-07T02:51:58;12.82;;;9.00;;
80411;SDS011;69749;42.684;23.360;2023-05-07T02:54:24;13.93;;;10.02;;
80411;SDS011;69749;42.684;23.360;2023-05-07T02:56:50;16.55;;;10.50;;
80411;SDS011;69749;42.684;23.360;2023-05-07T02:59:15;16.00;;;10.18;;
80411;SDS011;69749;42.684;23.360;2023-05-07T03:01:40;18.23;;;10.82;;
80411;SDS011;69749;42.684;23.360;2023-05-07T03:04:08;16.52;;;9.95;;
80411;SDS011;69749;42.684;23.360;2023-05-07T03:06:34;15.07;;;10.18;;
80411;SDS011;69749;42.684;23.360;2023-05-07T03:09:00;16.23;;;10.07;;
80411;SDS011;69749;42.684;23.360;2023-05-07T03:11:25;16.23;;;10.68;;
80411;SDS011;69749;42.684;23.360;2023-05-07T03:13:50;17.15;;;11.05;;
80411;SDS011;69749;42.684;23.360;2023-05-07T03:16:16;18.42;;;10.20;;
80411;SDS011;69749;42.684;23.360;2023-05-07T03:18:41;18.80;;;10.57;;
80411;SDS011;69749;42.684;23.360;2023-05-07T03:21:07;18.17;;;11.60;;
80411;SDS011;69749;42.684;23.360;2023-05-07T03:23:32;14.57;;;9.93;;
80411;SDS011;69749;42.684;23.360;2023-05-07T03:25:57;18.38;;;11.10;;
80411;SDS011;69749;42.684;23.360;2023-05-07T03:28:23;16.15;;;11.50;;
80411;SDS011;69749;42.684;23.360;2023-05-07T03:30:48;15.70;;;10.52;;
80411;SDS011;69749;42.684;23.360;2023-05-07T03:33:14;18.13;;;11.07;;
80411;SDS011;69749;42.684;23.360;2023-05-07T03:35:39;15.95;;;10.35;;
80411;SDS011;69749;42.684;23.360;2023-05-07T03:38:04;19.23;;;11.18;;
80411;SDS011;69749;42.684;23.360;2023-05-07T03:40:30;17.30;;;11.30;;
80411;SDS011;69749;42.684;23.360;2023-05-07T03:42:55;17.95;;;11.18;;
80411;SDS011;69749;42.684;23.360;2023-05-07T03:45:21;16.50;;;10.90;;
80411;SDS011;69749;42.684;23.360;2023-05-07T03:47:46;16.27;;;9.95;;
80411;SDS011;69749;42.684;23.360;2023-05-07T03:50:11;16.02;;;10.85;;
80411;SDS011;69749;42.684;23.360;2023-05-07T03:52:37;15.90;;;10.10;;
80411;SDS011;69749;42.684;23.360;2023-05-07T03:55:02;14.82;;;10.77;;
80411;SDS011;69749;42.684;23.360;2023-05-07T03:57:28;15.00;;;10.23;;
80411;SDS011;69749;42.684;23.360;2023-05-07T03:59:53;19.15;;;10.45;;
80411;SDS011;69749;42.684;23.360;2023-05-07T04:02:18;20.42;;;10.98;;
80411;SDS011;69749;42.684;23.360;2023-05-07T04:04:44;16.15;;;9.93;;
80411;SDS011;69749;42.684;23.360;2023-05-07T04:07:09;15.45;;;10.18;;
80411;SDS011;69749;42.684;23.360;2023-05-07T04:09:35;14.38;;;10.40;;
80411;SDS011;69749;42.684;23.360;2023-05-07T04:12:00;16.88;;;11.15;;
80411;SDS011;69749;42.684;23.360;2023-05-07T04:14:26;15.95;;;10.38;;
80411;SDS011;69749;42.684;23.360;2023-05-07T04:16:51;14.80;;;10.15;;
80411;SDS011;69749;42.684;23.360;2023-05-07T04:19:17;17.40;;;11.27;;
80411;SDS011;69749;42.684;23.360;2023-05-07T04:21:42;17.45;;;10.95;;
80411;SDS011;69749;42.684;23.360;2023-05-07T04:24:08;16.25;;;10.77;;
80411;SDS011;69749;42.684;23.360;2023-05-07T04:26:33;17.23;;;10.50;;
80411;SDS011;69749;42.684;23.360;2023-05-07T04:28:59;17.08;;;9.88;;
80411;SDS011;69749;42.684;23.360;2023-05-07T04:31:24;14.98;;;9.68;;
80411;SDS011;69749;42.684;23.360;2023-05-07T04:33:50;15.27;;;10.38;;
80411;SDS011;69749;42.684;23.360;2023-05-07T04:36:16;14.93;;;10.38;;
80411;SDS011;69749;42.684;23.360;2023-05-07T04:38:42;13.70;;;10.43;;
80411;SDS011;69749;42.684;23.360;2023-05-07T04:41:08;17.27;;;10.77;;
80411;SDS011;69749;42.684;23.360;2023-05-07T04:43:34;15.32;;;10.93;;
80411;SDS011;69749;42.684;23.360;2023-05-07T04:46:00;17.40;;;10.50;;
80411;SDS011;69749;42.684;23.360;2023-05-07T04:48:25;15.30;;;10.15;;
80411;SDS011;69749;42.684;23.360;2023-05-07T04:50:51;13.05;;;9.57;;
80411;SDS011;69749;42.684;23.360;2023-05-07T04:53:17;16.42;;;10.55;;
80411;SDS011;69749;42.684;23.360;2023-05-07T04:55:43;16.63;;;9.90;;
80411;SDS011;69749;42.684;23.360;2023-05-07T04:58:10;18.45;;;10.45;;
80411;SDS011;69749;42.684;23.360;2023-05-07T05:00:35;12.48;;;9.38;;
80411;SDS011;69749;42.684;23.360;2023-05-07T05:03:01;14.52;;;9.82;;
80411;SDS011;69749;42.684;23.360;2023-05-07T05:05:26;17.08;;;10.77;;
80411;SDS011;69749;42.684;23.360;2023-05-07T05:07:52;14.32;;;10.48;;
80411;SDS011;69749;42.684;23.360;2023-05-07T05:10:17;20.33;;;10.38;;
80411;SDS011;69749;42.684;23.360;2023-05-07T05:12:43;16.95;;;10.05;;
80411;SDS011;69749;42.684;23.360;2023-05-07T05:15:10;16.60;;;10.93;;
80411;SDS011;69749;42.684;23.360;2023-05-07T05:17:36;14.65;;;11.00;;
80411;SDS011;69749;42.684;23.360;2023-05-07T05:20:02;13.70;;;9.10;;
80411;SDS011;69749;42.684;23.360;2023-05-07T05:22:27;16.25;;;9.95;;
80411;SDS011;69749;42.684;23.360;2023-05-07T05:24:54;14.40;;;9.85;;
80411;SDS011;69749;42.684;23.360;2023-05-07T05:27:20;15.20;;;10.30;;
80411;SDS011;69749;42.684;23.360;2023-05-07T05:29:45;18.98;;;10.07;;
80411;SDS011;69749;42.684;23.360;2023-05-07T05:32:10;15.05;;;10.30;;
80411;SDS011;69749;42.684;23.360;2023-05-07T05:34:36;13.93;;;9.93;;
80411;SDS011;69749;42.684;23.360;2023-05-07T05:37:01;12.35;;;9.27;;
80411;SDS011;69749;42.684;23.360;2023-05-07T05:39:27;13.50;;;9.55;;
80411;SDS011;69749;42.684;23.360;2023-05-07T05:41:52;12.60;;;9.48;;
80411;SDS011;69749;42.684;23.360;2023-05-07T05:44:18;15.52;;;9.77;;
80411;SDS011;69749;42.684;23.360;2023-05-07T05:46:43;16.15;;;9.32;;
80411;SDS011;69749;42.684;23.360;2023-05-07T05:49:09;13.45;;;8.95;;
80411;SDS011;69749;42.684;23.360;2023-05-07T05:51:34;12.13;;;9.13;;
80411;SDS011;69749;42.684;23.360;2023-05-07T05:53:59;13.32;;;9.02;;
80411;SDS011;69749;42.684;23.360;2023-05-07T05:56:25;14.48;;;9.48;;
80411;SDS011;69749;42.684;23.360;2023-05-07T05:58:50;13.55;;;9.38;;
80411;SDS011;69749;42.684;23.360;2023-05-07T06:01:16;12.73;;;9.00;;
80411;SDS011;69749;42.684;23.360;2023-05-07T06:03:42;14.00;;;9.18;;
80411;SDS011;69749;42.684;23.360;2023-05-07T06:06:08;12.75;;;8.95;;
80411;SDS011;69749;42.684;23.360;2023-05-07T06:08:33;14.68;;;9.23;;
80411;SDS011;69749;42.684;23.360;2023-05-07T06:10:58;15.38;;;9.68;;
80411;SDS011;69749;42.684;23.360;2023-05-07T06:13:24;12.20;;;9.50;;
80411;SDS011;69749;42.684;23.360;2023-05-07T06:15:50;11.82;;;8.95;;
80411;SDS011;69749;42.684;23.360;2023-05-07T06:18:15;12.88;;;9.45;;
80411;SDS011;69749;42.684;23.360;2023-05-07T06:20:41;12.93;;;8.95;;
80411;SDS011;69749;42.684;23.360;2023-05-07T06:23:06;13.50;;;9.27;;
80411;SDS011;69749;42.684;23.360;2023-05-07T06:25:31;12.27;;;9.00;;
80411;SDS011;69749;42.684;23.360;2023-05-07T06:27:57;13.25;;;9.68;;
80411;SDS011;69749;42.684;23.360;2023-05-07T06:30:22;12.88;;;9.63;;
80411;SDS011;69749;42.684;23.360;2023-05-07T06:32:47;13.18;;;8.18;;
80411;SDS011;69749;42.684;23.360;2023-05-07T06:35:13;12.77;;;8.60;;
80411;SDS011;69749;42.684;23.360;2023-05-07T06:37:38;11.32;;;8.93;;
80411;SDS011;69749;42.684;23.360;2023-05-07T06:40:05;11.90;;;8.25;;
80411;SDS011;69749;42.684;23.360;2023-05-07T06:42:32;12.43;;;8.25;;
80411;SDS011;69749;42.684;23.360;2023-05-07T06:44:57;11.90;;;8.95;;
80411;SDS011;69749;42.684;23.360;2023-05-07T06:47:22;12.20;;;8.75;;
80411;SDS011;69749;42.684;23.360;2023-05-07T06:49:48;10.70;;;8.05;;
80411;SDS011;69749;42.684;23.360;2023-05-07T06:52:13;13.18;;;9.63;;
80411;SDS011;69749;42.684;23.360;2023-05-07T06:54:38;11.75;;;9.20;;
80411;SDS011;69749;42.684;23.360;2023-05-07T06:57:04;12.75;;;10.07;;
80411;SDS011;69749;42.684;23.360;2023-05-07T06:59:29;14.23;;;10.40;;
80411;SDS011;69749;42.684;23.360;2023-05-07T07:01:55;11.60;;;9.77;;
80411;SDS011;69749;42.684;23.360;2023-05-07T07:04:20;14.05;;;10.48;;
80411;SDS011;69749;42.684;23.360;2023-05-07T07:06:47;10.65;;;9.35;;
80411;SDS011;69749;42.684;23.360;2023-05-07T07:09:13;12.27;;;9.60;;
80411;SDS011;69749;42.684;23.360;2023-05-07T07:11:38;11.27;;;9.07;;
80411;SDS011;69749;42.684;23.360;2023-05-07T07:14:04;11.80;;;9.80;;
80411;SDS011;69749;42.684;23.360;2023-05-07T07:16:30;12.57;;;9.02;;
80411;SDS011;69749;42.684;23.360;2023-05-07T07:18:55;14.40;;;9.95;;
80411;SDS011;69749;42.684;23.360;2023-05-07T07:21:21;14.15;;;9.77;;
80411;SDS011;69749;42.684;23.360;2023-05-07T07:23:46;12.70;;;9.93;;
80411;SDS011;69749;42.684;23.360;2023-05-07T07:26:11;12.60;;;9.55;;
80411;SDS011;69749;42.684;23.360;2023-05-07T07:28:46;12.27;;;10.07;;
80411;SDS011;69749;42.684;23.360;2023-05-07T07:31:11;14.00;;;10.40;;
80411;SDS011;69749;42.684;23.360;2023-05-07T07:33:37;12.70;;;10.20;;
80411;SDS011;69749;42.684;23.360;2023-05-07T07:36:03;13.38;;;9.75;;
80411;SDS011;69749;42.684;23.360;2023-05-07T07:38:28;13.48;;;9.35;;
80411;SDS011;69749;42.684;23.360;2023-05-07T07:40:54;15.35;;;9.27;;
80411;SDS011;69749;42.684;23.360;2023-05-07T07:43:19;13.32;;;9.48;;
80411;SDS011;69749;42.684;23.360;2023-05-07T07:45:45;13.75;;;10.27;;
80411;SDS011;69749;42.684;23.360;2023-05-07T07:48:11;14.25;;;9.68;;
80411;SDS011;69749;42.684;23.360;2023-05-07T07:50:36;10.90;;;9.18;;
80411;SDS011;69749;42.684;23.360;2023-05-07T07:53:02;12.77;;;9.38;;
80411;SDS011;69749;42.684;23.360;2023-05-07T07:55:27;11.95;;;9.40;;
80411;SDS011;69749;42.684;23.360;2023-05-07T07:57:53;13.73;;;9.98;;
80411;SDS011;69749;42.684;23.360;2023-05-07T08:00:18;12.27;;;9.65;;
80411;SDS011;69749;42.684;23.360;2023-05-07T08:02:43;13.90;;;9.90;;
80411;SDS011;69749;42.684;23.360;2023-05-07T08:05:09;14.25;;;9.60;;
80411;SDS011;69749;42.684;23.360;2023-05-07T08:07:34;24.33;;;10.73;;
80411;SDS011;69749;42.684;23.360;2023-05-07T08:10:00;14.80;;;9.50;;
80411;SDS011;69749;42.684;23.360;2023-05-07T08:12:26;13.77;;;8.73;;
80411;SDS011;69749;42.684;23.360;2023-05-07T08:14:51;10.35;;;9.00;;
80411;SDS011;69749;42.684;23.360;2023-05-07T08:17:16;12.48;;;8.80;;
80411;SDS011;69749;42.684;23.360;2023-05-07T08:19:42;12.55;;;7.95;;
80411;SDS011;69749;42.684;23.360;2023-05-07T08:22:09;14.13;;;8.57;;
80411;SDS011;69749;42.684;23.360;2023-05-07T08:24:35;12.60;;;8.80;;
80411;SDS011;69749;42.684;23.360;2023-05-07T08:27:01;11.07;;;8.70;;
80411;SDS011;69749;42.684;23.360;2023-05-07T08:29:26;10.32;;;7.07;;
80411;SDS011;69749;42.684;23.360;2023-05-07T08:31:51;12.95;;;7.97;;
80411;SDS011;69749;42.684;23.360;2023-05-07T08:34:17;10.15;;;7.55;;
80411;SDS011;69749;42.684;23.360;2023-05-07T08:36:43;11.75;;;8.48;;
80411;SDS011;69749;42.684;23.360;2023-05-07T08:39:09;11.32;;;7.80;;
80411;SDS011;69749;42.684;23.360;2023-05-07T08:41:34;17.08;;;8.27;;
80411;SDS011;69749;42.684;23.360;2023-05-07T08:43:59;11.10;;;8.02;;
80411;SDS011;69749;42.684;23.360;2023-05-07T08:46:29;10.52;;;7.80;;
80411;SDS011;69749;42.684;23.360;2023-05-07T08:48:57;10.00;;;7.35;;
80411;SDS011;69749;42.684;23.360;2023-05-07T08:51:22;12.10;;;7.70;;
80411;SDS011;69749;42.684;23.360;2023-05-07T08:53:48;8.23;;;6.63;;
80411;SDS011;69749;42.684;23.360;2023-05-07T08:58:41;9.38;;;6.60;;
80411;SDS011;69749;42.684;23.360;2023-05-07T09:01:08;8.48;;;6.72;;
80411;SDS011;69749;42.684;23.360;2023-05-07T09:03:37;7.75;;;6.55;;
80411;SDS011;69749;42.684;23.360;2023-05-07T09:06:06;10.07;;;6.03;;
80411;SDS011;69749;42.684;23.360;2023-05-07T09:08:32;7.55;;;5.72;;
80411;SDS011;69749;42.684;23.360;2023-05-07T09:10:58;6.45;;;5.22;;
80411;SDS011;69749;42.684;23.360;2023-05-07T09:13:24;6.57;;;5.45;;
80411;SDS011;69749;42.684;23.360;2023-05-07T09:15:49;7.30;;;5.50;;
80411;SDS011;69749;42.684;23.360;2023-05-07T09:18:15;11.23;;;5.80;;
80411;SDS011;69749;42.684;23.360;2023-05-07T09:20:40;8.68;;;5.35;;
80411;SDS011;69749;42.684;23.360;2023-05-07T09:23:06;7.38;;;4.93;;
80411;SDS011;69749;42.684;23.360;2023-05-07T09:25:33;7.93;;;4.88;;
80411;SDS011;69749;42.684;23.360;2023-05-07T09:28:00;6.53;;;5.22;;
80411;SDS011;69749;42.684;23.360;2023-05-07T09:32:56;6.75;;;5.00;;
80411;SDS011;69749;42.684;23.360;2023-05-07T09:35:23;6.03;;;4.80;;
80411;SDS011;69749;42.684;23.360;2023-05-07T09:37:52;6.13;;;4.60;;
80411;SDS011;69749;42.684;23.360;2023-05-07T09:40:28;5.95;;;4.30;;
80411;SDS011;69749;42.684;23.360;2023-05-07T09:42:55;6.88;;;5.25;;
80411;SDS011;69749;42.684;23.360;2023-05-07T09:45:21;5.45;;;4.30;;
80411;SDS011;69749;42.684;23.360;2023-05-07T09:47:54;6.47;;;4.90;;
80411;SDS011;69749;42.684;23.360;2023-05-07T09:50:29;7.78;;;4.80;;
80411;SDS011;69749;42.684;23.360;2023-05-07T09:52:57;5.25;;;4.20;;
80411;SDS011;69749;42.684;23.360;2023-05-07T09:55:23;5.00;;;4.00;;
80411;SDS011;69749;42.684;23.360;2023-05-07T09:57:52;8.00;;;4.35;;
80411;SDS011;69749;42.684;23.360;2023-05-07T10:00:19;6.25;;;4.65;;
80411;SDS011;69749;42.684;23.360;2023-05-07T10:02:46;13.35;;;5.82;;
80411;SDS011;69749;42.684;23.360;2023-05-07T10:05:15;6.70;;;4.57;;
80411;SDS011;69749;42.684;23.360;2023-05-07T10:07:40;5.50;;;4.22;;
80411;SDS011;69749;42.684;23.360;2023-05-07T10:10:06;4.68;;;3.50;;
80411;SDS011;69749;42.684;23.360;2023-05-07T10:12:32;5.95;;;3.58;;
80411;SDS011;69749;42.684;23.360;2023-05-07T10:15:05;5.82;;;4.28;;
80411;SDS011;69749;42.684;23.360;2023-05-07T10:17:31;5.47;;;3.78;;
80411;SDS011;69749;42.684;23.360;2023-05-07T10:19:57;4.57;;;3.33;;
80411;SDS011;69749;42.684;23.360;2023-05-07T10:22:23;5.55;;;3.97;;
80411;SDS011;69749;42.684;23.360;2023-05-07T10:24:52;7.80;;;4.72;;
80411;SDS011;69749;42.684;23.360;2023-05-07T10:27:19;7.13;;;3.80;;
80411;SDS011;69749;42.684;23.360;2023-05-07T10:32:40;4.55;;;3.80;;
80411;SDS011;69749;42.684;23.360;2023-05-07T10:35:20;5.20;;;3.33;;
80411;SDS011;69749;42.684;23.360;2023-05-07T10:37:48;5.40;;;3.70;;
80411;SDS011;69749;42.684;23.360;2023-05-07T10:40:14;6.00;;;4.20;;
80411;SDS011;69749;42.684;23.360;2023-05-07T10:42:52;5.25;;;4.38;;
80411;SDS011;69749;42.684;23.360;2023-05-07T10:45:19;7.85;;;4.38;;
80411;SDS011;69749;42.684;23.360;2023-05-07T10:50:34;7.57;;;4.45;;
80411;SDS011;69749;42.684;23.360;2023-05-07T10:55:48;7.10;;;3.83;;
80411;SDS011;69749;42.684;23.360;2023-05-07T11:00:46;5.35;;;4.60;;
80411;SDS011;69749;42.684;23.360;2023-05-07T11:05:40;9.00;;;4.57;;
80411;SDS011;69749;42.684;23.360;2023-05-07T11:08:07;5.18;;;3.97;;
80411;SDS011;69749;42.684;23.360;2023-05-07T11:13:18;4.40;;;3.92;;
80411;SDS011;69749;42.684;23.360;2023-05-07T11:16:04;5.50;;;4.30;;
80411;SDS011;69749;42.684;23.360;2023-05-07T11:18:45;7.68;;;4.43;;
80411;SDS011;69749;42.684;23.360;2023-05-07T11:21:33;4.28;;;3.83;;
80411;SDS011;69749;42.684;23.360;2023-05-07T11:23:59;5.35;;;4.43;;
80411;SDS011;69749;42.684;23.360;2023-05-07T11:26:26;5.03;;;4.10;;
80411;SDS011;69749;42.684;23.360;2023-05-07T11:28:53;7.05;;;4.20;;
80411;SDS011;69749;42.684;23.360;2023-05-07T11:31:23;3.88;;;3.50;;
80411;SDS011;69749;42.684;23.360;2023-05-07T11:33:51;5.07;;;4.20;;
80411;SDS011;69749;42.684;23.360;2023-05-07T11:36:17;5.57;;;3.80;;
80411;SDS011;69749;42.684;23.360;2023-05-07T11:38:43;4.65;;;3.50;;
80411;SDS011;69749;42.684;23.360;2023-05-07T11:41:09;5.43;;;3.38;;
80411;SDS011;69749;42.684;23.360;2023-05-07T11:43:35;4.22;;;3.83;;
80411;SDS011;69749;42.684;23.360;2023-05-07T11:46:05;5.13;;;4.00;;
80411;SDS011;69749;42.684;23.360;2023-05-07T11:48:34;7.57;;;3.80;;
80411;SDS011;69749;42.684;23.360;2023-05-07T11:51:04;4.20;;;3.80;;
80411;SDS011;69749;42.684;23.360;2023-05-07T11:53:37;6.70;;;3.97;;
80411;SDS011;69749;42.684;23.360;2023-05-07T11:58:33;6.13;;;4.05;;
80411;SDS011;69749;42.684;23.360;2023-05-07T12:00:58;5.95;;;4.07;;
80411;SDS011;69749;42.684;23.360;2023-05-07T12:03:24;5.65;;;3.70;;
80411;SDS011;69749;42.684;23.360;2023-05-07T12:05:49;6.22;;;3.90;;
80411;SDS011;69749;42.684;23.360;2023-05-07T12:08:18;4.70;;;3.95;;
80411;SDS011;69749;42.684;23.360;2023-05-07T12:10:45;4.05;;;3.58;;
80411;SDS011;69749;42.684;23.360;2023-05-07T12:13:19;5.45;;;4.30;;
80411;SDS011;69749;42.684;23.360;2023-05-07T12:15:55;5.70;;;4.05;;
80411;SDS011;69749;42.684;23.360;2023-05-07T12:18:21;4.55;;;3.65;;
80411;SDS011;69749;42.684;23.360;2023-05-07T12:20:48;4.78;;;3.72;;
80411;SDS011;69749;42.684;23.360;2023-05-07T12:23:14;4.72;;;3.78;;
80411;SDS011;69749;42.684;23.360;2023-05-07T12:25:41;6.18;;;3.70;;
80411;SDS011;69749;42.684;23.360;2023-05-07T12:28:14;5.88;;;3.40;;
80411;SDS011;69749;42.684;23.360;2023-05-07T12:33:07;5.15;;;3.60;;
80411;SDS011;69749;42.684;23.360;2023-05-07T12:35:36;5.03;;;3.83;;
80411;SDS011;69749;42.684;23.360;2023-05-07T12:38:06;5.78;;;3.55;;
80411;SDS011;69749;42.684;23.360;2023-05-07T12:40:46;5.00;;;3.78;;
80411;SDS011;69749;42.684;23.360;2023-05-07T12:43:33;4.80;;;3.40;;
80411;SDS011;69749;42.684;23.360;2023-05-07T12:46:00;5.75;;;3.47;;
80411;SDS011;69749;42.684;23.360;2023-05-07T12:48:28;3.20;;;2.90;;
80411;SDS011;69749;42.684;23.360;2023-05-07T12:50:54;5.07;;;3.33;;
80411;SDS011;69749;42.684;23.360;2023-05-07T12:53:21;4.75;;;2.83;;
80411;SDS011;69749;42.684;23.360;2023-05-07T12:55:49;3.85;;;2.70;;
80411;SDS011;69749;42.684;23.360;2023-05-07T12:58:17;2.88;;;2.45;;
80411;SDS011;69749;42.684;23.360;2023-05-07T13:00:44;3.20;;;2.85;;
80411;SDS011;69749;42.684;23.360;2023-05-07T13:03:10;3.22;;;2.90;;
80411;SDS011;69749;42.684;23.360;2023-05-07T13:05:36;5.55;;;3.00;;
80411;SDS011;69749;42.684;23.360;2023-05-07T13:08:02;6.25;;;3.10;;
80411;SDS011;69749;42.684;23.360;2023-05-07T13:10:27;3.22;;;2.72;;
80411;SDS011;69749;42.684;23.360;2023-05-07T13:12:53;4.47;;;2.90;;
80411;SDS011;69749;42.684;23.360;2023-05-07T13:15:19;2.97;;;2.33;;
80411;SDS011;69749;42.684;23.360;2023-05-07T13:17:45;4.25;;;2.67;;
80411;SDS011;69749;42.684;23.360;2023-05-07T13:20:10;4.45;;;2.60;;
80411;SDS011;69749;42.684;23.360;2023-05-07T13:22:37;2.85;;;2.55;;
80411;SDS011;69749;42.684;23.360;2023-05-07T13:25:03;3.03;;;2.78;;
80411;SDS011;69749;42.684;23.360;2023-05-07T13:27:29;5.60;;;3.03;;
80411;SDS011;69749;42.684;23.360;2023-05-07T13:29:55;4.75;;;3.65;;
80411;SDS011;69749;42.684;23.360;2023-05-07T13:32:21;3.75;;;2.78;;
80411;SDS011;69749;42.684;23.360;2023-05-07T13:34:46;3.60;;;2.97;;
80411;SDS011;69749;42.684;23.360;2023-05-07T13:37:12;3.03;;;2.70;;
80411;SDS011;69749;42.684;23.360;2023-05-07T13:39:37;3.50;;;3.05;;
80411;SDS011;69749;42.684;23.360;2023-05-07T13:42:03;5.32;;;2.60;;
80411;SDS011;69749;42.684;23.360;2023-05-07T13:44:28;3.30;;;3.00;;
80411;SDS011;69749;42.684;23.360;2023-05-07T13:46:53;3.95;;;3.45;;
80411;SDS011;69749;42.684;23.360;2023-05-07T13:49:19;7.25;;;2.90;;
80411;SDS011;69749;42.684;23.360;2023-05-07T13:51:44;6.82;;;3.15;;
80411;SDS011;69749;42.684;23.360;2023-05-07T13:54:10;4.72;;;2.70;;
80411;SDS011;69749;42.684;23.360;2023-05-07T13:56:36;3.92;;;2.97;;
80411;SDS011;69749;42.684;23.360;2023-05-07T13:59:01;6.13;;;3.03;;
80411;SDS011;69749;42.684;23.360;2023-05-07T14:01:30;5.10;;;2.83;;
80411;SDS011;69749;42.684;23.360;2023-05-07T14:03:56;4.43;;;3.40;;
80411;SDS011;69749;42.684;23.360;2023-05-07T14:06:22;6.07;;;3.30;;
80411;SDS011;69749;42.684;23.360;2023-05-07T14:08:48;4.80;;;3.15;;
80411;SDS011;69749;42.684;23.360;2023-05-07T14:11:13;6.72;;;3.30;;
80411;SDS011;69749;42.684;23.360;2023-05-07T14:13:39;3.30;;;3.00;;
80411;SDS011;69749;42.684;23.360;2023-05-07T14:16:04;7.13;;;2.90;;
80411;SDS011;69749;42.684;23.360;2023-05-07T14:18:30;11.00;;;4.18;;
80411;SDS011;69749;42.684;23.360;2023-05-07T14:20:55;7.70;;;5.25;;
80411;SDS011;69749;42.684;23.360;2023-05-07T14:23:21;8.25;;;4.07;;
80411;SDS011;69749;42.684;23.360;2023-05-07T14:25:51;7.65;;;3.53;;
80411;SDS011;69749;42.684;23.360;2023-05-07T14:28:19;4.85;;;3.17;;
80411;SDS011;69749;42.684;23.360;2023-05-07T14:30:45;5.00;;;3.15;;
80411;SDS011;69749;42.684;23.360;2023-05-07T14:33:10;3.42;;;3.13;;
80411;SDS011;69749;42.684;23.360;2023-05-07T14:35:35;4.43;;;3.00;;
80411;SDS011;69749;42.684;23.360;2023-05-07T14:38:01;4.30;;;3.20;;
80411;SDS011;69749;42.684;23.360;2023-05-07T14:40:26;7.95;;;3.65;;
80411;SDS011;69749;42.684;23.360;2023-05-07T14:42:52;4.28;;;3.30;;
80411;SDS011;69749;42.684;23.360;2023-05-07T14:45:17;6.50;;;4.18;;
80411;SDS011;69749;42.684;23.360;2023-05-07T14:47:42;3.38;;;2.83;;